createdAt,value
2018-10-17T00:00:05.404Z,27.23
2018-10-17T00:05:03.901Z,25.33
2018-10-17T00:10:02.261Z,25.60
2018-10-17T00:15:00.749Z,25.93
2018-10-17T00:19:59.117Z,26.50
2018-10-17T00:24:57.593Z,28.13
2018-10-17T00:29:56.064Z,28.70
2018-10-17T00:34:54.572Z,27.47
2018-10-17T00:39:52.913Z,26.87
2018-10-17T00:44:51.325Z,26.17
2018-10-17T00:49:49.692Z,27.20
2018-10-17T00:54:48.157Z,27.03
2018-10-17T00:59:46.544Z,29.00
2018-10-17T01:04:45.023Z,26.67
2018-10-17T01:09:43.410Z,28.67
2018-10-17T01:14:41.802Z,29.80
2018-10-17T01:19:40.175Z,27.73
2018-10-17T01:24:38.629Z,25.97
2018-10-17T01:29:37.141Z,28.17
2018-10-17T01:34:35.660Z,27.63
2018-10-17T01:39:34.009Z,26.93
2018-10-17T01:44:32.501Z,29.60
2018-10-17T01:49:30.936Z,28.97
2018-10-17T01:54:29.410Z,26.83
2018-10-17T01:59:27.791Z,29.50
2018-10-17T02:04:26.197Z,26.53
2018-10-17T02:09:24.695Z,28.60
2018-10-17T02:14:23.242Z,28.80
2018-10-17T02:19:21.636Z,31.97
2018-10-17T02:24:20.088Z,31.40
2018-10-17T02:29:18.441Z,29.73
2018-10-17T02:34:16.876Z,30.13
2018-10-17T02:39:15.270Z,34.23
2018-10-17T02:44:13.646Z,34.70
2018-10-17T02:49:12.149Z,42.23
2018-10-17T02:54:10.419Z,40.53
2018-10-17T02:59:08.869Z,39.53
2018-10-17T03:04:07.270Z,37.23
2018-10-17T03:09:06.801Z,41.83
2018-10-17T03:14:05.278Z,40.17
2018-10-17T03:19:03.952Z,40.70
2018-10-17T03:24:02.274Z,38.67
2018-10-17T03:29:00.682Z,40.73
2018-10-17T03:33:59.030Z,44.17
2018-10-17T03:38:57.425Z,50.80
2018-10-17T03:43:55.817Z,46.10
2018-10-17T03:48:54.224Z,49.30
2018-10-17T03:53:57.772Z,41.73
2018-10-17T03:58:56.183Z,44.30
2018-10-17T04:03:54.556Z,56.77
2018-10-17T04:08:53.090Z,50.37
2018-10-17T04:13:51.484Z,55.17
2018-10-17T04:18:50.046Z,60.07
2018-10-17T04:23:48.435Z,52.30
2018-10-17T04:28:46.863Z,52.10
2018-10-17T04:33:45.250Z,51.00
2018-10-17T04:38:43.712Z,48.33
2018-10-17T04:43:42.105Z,50.80
2018-10-17T04:48:40.690Z,39.83
2018-10-17T04:53:39.089Z,41.83
2018-10-17T04:58:37.541Z,38.73
2018-10-17T05:03:35.929Z,39.57
2018-10-17T05:08:34.301Z,39.17
2018-10-17T05:13:32.665Z,35.67
2018-10-17T05:18:31.138Z,35.60
2018-10-17T05:23:29.556Z,32.73
2018-10-17T05:28:28.240Z,37.37
2018-10-17T05:33:26.680Z,35.90
2018-10-17T05:38:25.169Z,35.77
2018-10-17T05:43:23.574Z,38.47
2018-10-17T05:48:22.057Z,35.57
2018-10-17T05:53:20.447Z,35.37
2018-10-17T05:58:18.949Z,34.43
2018-10-17T06:03:17.494Z,32.07
2018-10-17T06:08:15.959Z,31.83
2018-10-17T06:13:14.394Z,37.10
2018-10-17T06:18:12.816Z,34.03
2018-10-17T06:23:11.261Z,29.63
2018-10-17T06:28:09.875Z,32.80
2018-10-17T06:33:08.429Z,36.10
2018-10-17T06:38:06.829Z,35.73
2018-10-17T06:43:05.339Z,29.43
2018-10-17T06:48:04.484Z,28.43
2018-10-17T06:53:02.932Z,30.43
2018-10-17T06:58:01.516Z,26.10
2018-10-17T07:02:59.918Z,22.30
2018-10-17T07:09:43.935Z,20.60
2018-10-17T07:14:42.383Z,21.03
2018-10-17T07:19:40.758Z,17.83
2018-10-17T07:24:39.198Z,14.80
2018-10-17T07:29:37.746Z,15.53
2018-10-17T07:34:35.965Z,15.07
2018-10-17T07:39:34.365Z,13.57
2018-10-17T07:44:32.788Z,11.63
2018-10-17T07:49:31.247Z,12.37
2018-10-17T07:54:29.726Z,13.80
2018-10-17T07:59:28.130Z,12.93
2018-10-17T08:04:26.585Z,12.30
2018-10-17T08:09:24.978Z,12.07
2018-10-17T08:14:23.437Z,12.00
2018-10-17T08:19:21.781Z,11.23
2018-10-17T08:24:20.243Z,6.30
2018-10-17T08:29:18.601Z,5.57
2018-10-17T08:34:17.038Z,5.13
2018-10-17T08:39:15.389Z,4.40
2018-10-17T08:44:13.812Z,3.70
2018-10-17T08:49:12.160Z,4.10
2018-10-17T08:54:10.707Z,3.07
2018-10-17T08:59:09.033Z,3.13
2018-10-17T09:04:07.658Z,3.57
2018-10-17T09:09:08.754Z,2.37
2018-10-17T09:14:07.265Z,2.47
2018-10-17T09:19:05.820Z,2.70
2018-10-17T09:24:04.474Z,3.07
2018-10-17T09:29:02.814Z,2.57
2018-10-17T09:34:01.189Z,3.17
2018-10-17T09:38:59.524Z,3.10
2018-10-17T09:43:57.898Z,3.00
2018-10-17T09:48:56.373Z,3.13
2018-10-17T09:53:54.807Z,3.00
2018-10-17T09:58:53.713Z,2.63
2018-10-17T10:03:52.150Z,2.77
2018-10-17T10:08:50.608Z,2.73
2018-10-17T10:13:49.002Z,2.73
2018-10-17T10:18:47.554Z,2.60
2018-10-17T10:23:46.096Z,2.40
2018-10-17T10:28:44.498Z,2.73
2018-10-17T10:33:42.815Z,2.67
2018-10-17T10:38:41.285Z,2.80
2018-10-17T10:43:39.674Z,2.93
2018-10-17T10:48:38.411Z,3.60
2018-10-17T10:53:36.869Z,2.30
2018-10-17T10:58:35.529Z,2.47
2018-10-17T11:03:33.672Z,2.77
2018-10-17T11:08:32.176Z,2.00
2018-10-17T11:13:30.556Z,2.73
2018-10-17T11:18:29.062Z,2.37
2018-10-17T11:23:27.470Z,2.53
2018-10-17T11:28:25.941Z,2.37
2018-10-17T11:33:24.307Z,3.00
2018-10-17T11:38:22.779Z,1.87
2018-10-17T11:43:21.127Z,2.50
2018-10-17T11:48:19.523Z,2.10
2018-10-17T11:53:18.016Z,2.60
2018-10-17T11:58:16.318Z,2.73
2018-10-17T12:03:14.788Z,2.70
2018-10-17T12:08:13.119Z,2.53
2018-10-17T12:13:11.488Z,3.03
2018-10-17T12:18:10.164Z,2.97
2018-10-17T12:23:08.524Z,2.93
2018-10-17T12:28:07.067Z,2.63
2018-10-17T12:33:05.431Z,2.80
2018-10-17T12:38:03.799Z,2.50
2018-10-17T12:43:02.363Z,2.30
2018-10-17T12:48:00.792Z,2.40
2018-10-17T12:52:59.454Z,2.10
2018-10-17T12:57:57.822Z,3.00
2018-10-17T13:02:56.185Z,2.40
2018-10-17T13:07:54.541Z,2.87
2018-10-17T13:12:52.939Z,2.83
2018-10-17T13:17:51.282Z,2.03
2018-10-17T13:22:49.634Z,2.50
2018-10-17T13:27:48.077Z,2.30
2018-10-17T13:32:46.449Z,1.80
2018-10-17T13:37:44.881Z,2.20
2018-10-17T13:42:43.349Z,2.37
2018-10-17T13:47:41.757Z,2.13
2018-10-17T13:52:40.157Z,2.00
2018-10-17T13:57:38.595Z,2.17
2018-10-17T14:02:37.019Z,2.30
2018-10-17T14:07:35.473Z,2.47
2018-10-17T14:12:34.350Z,2.73
2018-10-17T14:17:32.845Z,2.10
2018-10-17T14:22:31.189Z,1.80
2018-10-17T14:27:29.705Z,1.70
2018-10-17T14:32:28.071Z,1.97
2018-10-17T14:37:26.558Z,2.40
2018-10-17T14:42:24.955Z,2.03
2018-10-17T14:47:28.386Z,2.20
2018-10-17T14:52:26.749Z,1.77
2018-10-17T14:57:25.167Z,2.20
2018-10-17T15:02:23.607Z,2.10
2018-10-17T15:07:21.975Z,2.30
2018-10-17T15:12:20.340Z,2.00
2018-10-17T15:17:19.084Z,1.83
2018-10-17T15:22:17.458Z,2.47
2018-10-17T15:27:16.971Z,1.77
2018-10-17T15:33:02.340Z,2.17
2018-10-17T15:38:00.666Z,2.10
2018-10-17T15:42:59.120Z,2.50
2018-10-17T15:47:57.487Z,1.80
2018-10-17T15:52:55.874Z,2.23
2018-10-17T15:57:54.241Z,2.40
2018-10-17T16:02:52.607Z,3.03
2018-10-17T16:07:51.055Z,2.87
2018-10-17T16:12:49.470Z,3.00
2018-10-17T16:17:47.898Z,3.30
2018-10-17T16:22:46.440Z,3.70
2018-10-17T16:27:44.760Z,3.13
2018-10-17T16:32:43.121Z,3.43
2018-10-17T16:37:41.499Z,3.83
2018-10-17T16:42:40.266Z,3.17
2018-10-17T16:47:38.762Z,4.03
2018-10-17T16:52:37.164Z,4.60
2018-10-17T16:57:35.804Z,4.47
2018-10-17T17:02:34.188Z,4.50
2018-10-17T17:07:32.626Z,4.47
2018-10-17T17:12:30.994Z,4.83
2018-10-17T17:17:29.378Z,5.00
2018-10-17T17:22:27.871Z,5.70
2018-10-17T17:27:26.378Z,6.20
2018-10-17T17:32:24.769Z,7.37
2018-10-17T17:37:23.207Z,7.90
2018-10-17T17:42:21.570Z,7.37
2018-10-17T17:47:19.989Z,7.10
2018-10-17T17:52:18.523Z,6.63
2018-10-17T17:57:17.006Z,6.37
2018-10-17T18:02:15.386Z,9.23
2018-10-17T18:07:13.831Z,10.10
2018-10-17T18:12:12.191Z,9.67
2018-10-17T18:17:10.603Z,8.80
2018-10-17T18:22:08.987Z,9.47
2018-10-17T18:27:07.739Z,9.27
2018-10-17T18:32:06.124Z,9.23
2018-10-17T18:37:04.581Z,9.75
2018-10-17T18:49:25.346Z,9.57
2018-10-17T18:54:23.766Z,9.63
2018-10-17T18:59:22.161Z,9.00
2018-10-17T19:04:20.666Z,10.07
2018-10-17T19:09:19.030Z,9.10
2018-10-17T19:14:17.438Z,8.97
2018-10-17T19:19:15.824Z,9.30
2018-10-17T19:24:14.207Z,8.80
2018-10-17T19:29:13.092Z,9.93
2018-10-17T19:34:11.453Z,8.30
2018-10-17T19:39:11.458Z,10.20
2018-10-17T19:44:09.826Z,8.53
2018-10-17T19:49:08.282Z,6.77
2018-10-17T19:54:07.003Z,6.23
2018-10-17T19:59:05.473Z,6.30
2018-10-17T20:04:04.397Z,6.53
2018-10-17T20:09:04.845Z,6.13
2018-10-17T20:14:03.797Z,5.77
2018-10-17T20:19:02.224Z,5.87
2018-10-17T20:24:00.967Z,6.03
2018-10-17T20:28:59.437Z,5.67
2018-10-17T20:33:57.806Z,5.23
2018-10-17T20:38:56.328Z,6.40
2018-10-17T20:43:54.737Z,5.30
2018-10-17T20:48:53.243Z,4.73
2018-10-17T20:53:51.604Z,5.27
2018-10-17T20:58:50.056Z,6.30
2018-10-17T21:03:48.437Z,6.07
2018-10-17T21:08:46.951Z,5.23
2018-10-17T21:13:45.336Z,6.50
2018-10-17T21:18:43.837Z,5.57
2018-10-17T21:23:42.231Z,5.30
2018-10-17T21:28:40.774Z,5.97
2018-10-17T21:33:39.138Z,5.80
2018-10-17T21:38:37.880Z,5.10
2018-10-17T21:43:36.218Z,5.47
2018-10-17T21:48:34.688Z,4.90
2018-10-17T21:53:33.053Z,5.53
2018-10-17T21:58:31.521Z,5.30
2018-10-17T22:03:30.004Z,5.93
2018-10-17T22:08:28.506Z,4.70
2018-10-17T22:13:26.906Z,5.43
2018-10-17T22:18:25.369Z,5.30
2018-10-17T22:23:23.750Z,5.47
2018-10-17T22:28:22.196Z,5.00
2018-10-17T22:33:20.594Z,5.23
2018-10-17T22:38:19.094Z,5.70
2018-10-17T22:43:17.497Z,5.37
2018-10-17T22:53:40.793Z,6.03
2018-10-17T22:58:39.174Z,6.27
2018-10-17T23:03:37.600Z,5.73
2018-10-17T23:08:36.094Z,4.80
2018-10-17T23:13:34.444Z,4.83
2018-10-17T23:18:32.895Z,4.70
2018-10-17T23:23:31.346Z,4.80
2018-10-17T23:28:29.799Z,5.23
2018-10-17T23:33:28.181Z,4.87
2018-10-17T23:38:26.689Z,5.30
2018-10-17T23:43:25.032Z,6.33
2018-10-17T23:48:23.488Z,6.37
2018-10-17T23:53:21.846Z,6.43
2018-10-17T23:58:20.267Z,6.87
